sensor_id;sensor_type;location;lat;lon;timestamp;temperature;humidity
56044;DHT22;41912;51.022;3.664;2022-12-07T00:01:09;6.60;99.90
56044;DHT22;41912;51.022;3.664;2022-12-07T00:03:36;6.70;99.90
56044;DHT22;41912;51.022;3.664;2022-12-07T00:06:03;6.70;99.90
56044;DHT22;41912;51.022;3.664;2022-12-07T00:08:30;6.70;99.90
56044;DHT22;41912;51.022;3.664;2022-12-07T00:13:29;6.70;99.90
56044;DHT22;41912;51.022;3.664;2022-12-07T00:15:55;6.70;99.90
56044;DHT22;41912;51.022;3.664;2022-12-07T00:18:21;6.80;99.90
56044;DHT22;41912;51.022;3.664;2022-12-07T00:20:46;6.70;99.90
56044;DHT22;41912;51.022;3.664;2022-12-07T00:23:12;6.80;99.90
56044;DHT22;41912;51.022;3.664;2022-12-07T00:25:37;6.70;99.90
56044;DHT22;41912;51.022;3.664;2022-12-07T00:28:03;6.70;99.90
56044;DHT22;41912;51.022;3.664;2022-12-07T00:30:29;6.70;99.90
56044;DHT22;41912;51.022;3.664;2022-12-07T00:32:55;6.70;99.90
56044;DHT22;41912;51.022;3.664;2022-12-07T00:35:20;6.70;99.90
56044;DHT22;41912;51.022;3.664;2022-12-07T00:37:46;6.70;99.90
56044;DHT22;41912;51.022;3.664;2022-12-07T00:40:12;6.70;99.90
56044;DHT22;41912;51.022;3.664;2022-12-07T00:42:37;6.70;99.90
56044;DHT22;41912;51.022;3.664;2022-12-07T00:45:03;6.70;99.90
56044;DHT22;41912;51.022;3.664;2022-12-07T00:47:29;6.70;99.90
56044;DHT22;41912;51.022;3.664;2022-12-07T00:49:54;6.70;99.90
56044;DHT22;41912;51.022;3.664;2022-12-07T00:52:20;6.80;99.90
56044;DHT22;41912;51.022;3.664;2022-12-07T00:54:46;6.70;99.90
56044;DHT22;41912;51.022;3.664;2022-12-07T00:57:11;6.70;99.90
56044;DHT22;41912;51.022;3.664;2022-12-07T00:59:37;6.70;99.90
56044;DHT22;41912;51.022;3.664;2022-12-07T01:02:02;6.70;99.90
56044;DHT22;41912;51.022;3.664;2022-12-07T01:04:28;6.70;99.90
56044;DHT22;41912;51.022;3.664;2022-12-07T01:06:55;6.70;99.90
56044;DHT22;41912;51.022;3.664;2022-12-07T01:09:20;6.70;99.90
56044;DHT22;41912;51.022;3.664;2022-12-07T01:11:46;6.60;99.90
56044;DHT22;41912;51.022;3.664;2022-12-07T01:14:11;6.60;99.90
56044;DHT22;41912;51.022;3.664;2022-12-07T01:16:38;6.50;99.90
56044;DHT22;41912;51.022;3.664;2022-12-07T01:19:04;6.50;99.90
56044;DHT22;41912;51.022;3.664;2022-12-07T01:21:32;6.50;99.90
56044;DHT22;41912;51.022;3.664;2022-12-07T01:24:00;6.40;99.90
56044;DHT22;41912;51.022;3.664;2022-12-07T01:26:26;6.30;99.90
56044;DHT22;41912;51.022;3.664;2022-12-07T01:28:52;6.30;99.90
56044;DHT22;41912;51.022;3.664;2022-12-07T01:31:21;6.20;99.90
56044;DHT22;41912;51.022;3.664;2022-12-07T01:33:50;6.20;99.90
56044;DHT22;41912;51.022;3.664;2022-12-07T01:36:30;6.10;99.90
56044;DHT22;41912;51.022;3.664;2022-12-07T01:39:03;6.10;99.90
56044;DHT22;41912;51.022;3.664;2022-12-07T01:41:31;6.10;99.90
56044;DHT22;41912;51.022;3.664;2022-12-07T01:46:49;6.10;99.90
56044;DHT22;41912;51.022;3.664;2022-12-07T01:52:28;6.10;99.90
56044;DHT22;41912;51.022;3.664;2022-12-07T01:55:03;6.10;99.90
56044;DHT22;41912;51.022;3.664;2022-12-07T01:57:31;6.00;99.90
56044;DHT22;41912;51.022;3.664;2022-12-07T01:59:58;6.00;99.90
56044;DHT22;41912;51.022;3.664;2022-12-07T02:02:29;6.00;99.90
56044;DHT22;41912;51.022;3.664;2022-12-07T02:04:57;6.00;99.90
56044;DHT22;41912;51.022;3.664;2022-12-07T02:07:24;6.00;99.90
56044;DHT22;41912;51.022;3.664;2022-12-07T02:09:51;6.00;99.90
56044;DHT22;41912;51.022;3.664;2022-12-07T02:12:16;6.00;99.90
56044;DHT22;41912;51.022;3.664;2022-12-07T02:14:42;6.00;99.90
56044;DHT22;41912;51.022;3.664;2022-12-07T02:17:48;6.00;99.90
56044;DHT22;41912;51.022;3.664;2022-12-07T02:23:57;5.90;99.90
56044;DHT22;41912;51.022;3.664;2022-12-07T02:29:24;5.80;99.90
56044;DHT22;41912;51.022;3.664;2022-12-07T02:32:03;5.80;99.90
56044;DHT22;41912;51.022;3.664;2022-12-07T02:34:44;5.80;99.90
56044;DHT22;41912;51.022;3.664;2022-12-07T02:37:27;5.80;99.90
56044;DHT22;41912;51.022;3.664;2022-12-07T02:40:22;5.70;99.90
56044;DHT22;41912;51.022;3.664;2022-12-07T02:42:55;5.70;99.90
56044;DHT22;41912;51.022;3.664;2022-12-07T02:45:25;5.70;99.90
56044;DHT22;41912;51.022;3.664;2022-12-07T02:47:53;5.70;99.90
56044;DHT22;41912;51.022;3.664;2022-12-07T02:50:21;5.70;99.90
56044;DHT22;41912;51.022;3.664;2022-12-07T02:52:47;5.60;99.90
56044;DHT22;41912;51.022;3.664;2022-12-07T02:55:16;5.60;99.90
56044;DHT22;41912;51.022;3.664;2022-12-07T03:00:56;5.60;99.90
56044;DHT22;41912;51.022;3.664;2022-12-07T03:03:24;5.50;99.90
56044;DHT22;41912;51.022;3.664;2022-12-07T03:08:32;5.50;99.90
56044;DHT22;41912;51.022;3.664;2022-12-07T03:11:14;5.50;99.90
56044;DHT22;41912;51.022;3.664;2022-12-07T03:13:55;5.60;99.90
56044;DHT22;41912;51.022;3.664;2022-12-07T03:16:34;5.60;99.90
56044;DHT22;41912;51.022;3.664;2022-12-07T03:19:13;5.60;99.90
56044;DHT22;41912;51.022;3.664;2022-12-07T03:21:44;5.60;99.90
56044;DHT22;41912;51.022;3.664;2022-12-07T03:24:17;5.60;99.90
56044;DHT22;41912;51.022;3.664;2022-12-07T03:26:51;5.70;99.90
56044;DHT22;41912;51.022;3.664;2022-12-07T03:29:24;5.70;99.90
56044;DHT22;41912;51.022;3.664;2022-12-07T03:32:10;5.70;99.90
56044;DHT22;41912;51.022;3.664;2022-12-07T03:34:56;5.70;99.90
56044;DHT22;41912;51.022;3.664;2022-12-07T03:42:48;5.70;99.90
56044;DHT22;41912;51.022;3.664;2022-12-07T03:45:14;5.70;99.90
56044;DHT22;41912;51.022;3.664;2022-12-07T03:47:47;5.70;99.90
56044;DHT22;41912;51.022;3.664;2022-12-07T03:50:31;5.70;99.90
56044;DHT22;41912;51.022;3.664;2022-12-07T03:53:08;5.70;99.90
56044;DHT22;41912;51.022;3.664;2022-12-07T03:55:36;5.60;99.90
56044;DHT22;41912;51.022;3.664;2022-12-07T03:58:09;5.60;99.90
56044;DHT22;41912;51.022;3.664;2022-12-07T04:00:37;5.60;99.90
56044;DHT22;41912;51.022;3.664;2022-12-07T04:03:03;5.80;99.90
56044;DHT22;41912;51.022;3.664;2022-12-07T04:05:28;5.60;99.90
56044;DHT22;41912;51.022;3.664;2022-12-07T04:07:54;5.60;99.90
56044;DHT22;41912;51.022;3.664;2022-12-07T04:10:20;5.60;99.90
56044;DHT22;41912;51.022;3.664;2022-12-07T04:12:46;5.60;99.90
56044;DHT22;41912;51.022;3.664;2022-12-07T04:15:11;5.60;99.90
56044;DHT22;41912;51.022;3.664;2022-12-07T04:17:37;5.60;99.90
56044;DHT22;41912;51.022;3.664;2022-12-07T04:20:04;5.60;99.90
56044;DHT22;41912;51.022;3.664;2022-12-07T04:22:30;5.50;99.90
56044;DHT22;41912;51.022;3.664;2022-12-07T04:24:55;5.50;99.90
56044;DHT22;41912;51.022;3.664;2022-12-07T04:27:21;5.50;99.90
56044;DHT22;41912;51.022;3.664;2022-12-07T04:29:46;5.50;99.90
56044;DHT22;41912;51.022;3.664;2022-12-07T04:32:12;5.50;99.90
56044;DHT22;41912;51.022;3.664;2022-12-07T04:34:38;5.50;99.90
56044;DHT22;41912;51.022;3.664;2022-12-07T04:37:03;5.50;99.90
56044;DHT22;41912;51.022;3.664;2022-12-07T04:39:31;5.50;99.90
56044;DHT22;41912;51.022;3.664;2022-12-07T04:41:58;5.50;99.90
56044;DHT22;41912;51.022;3.664;2022-12-07T04:44:24;5.40;99.90
56044;DHT22;41912;51.022;3.664;2022-12-07T04:46:51;5.40;99.90
56044;DHT22;41912;51.022;3.664;2022-12-07T04:49:17;5.50;99.90
56044;DHT22;41912;51.022;3.664;2022-12-07T04:51:43;5.40;99.90
56044;DHT22;41912;51.022;3.664;2022-12-07T04:54:10;5.40;99.90
56044;DHT22;41912;51.022;3.664;2022-12-07T04:56:36;5.40;99.90
56044;DHT22;41912;51.022;3.664;2022-12-07T04:59:02;5.40;99.90
56044;DHT22;41912;51.022;3.664;2022-12-07T05:01:28;5.40;99.90
56044;DHT22;41912;51.022;3.664;2022-12-07T05:03:54;5.40;99.90
56044;DHT22;41912;51.022;3.664;2022-12-07T05:06:19;5.40;99.90
56044;DHT22;41912;51.022;3.664;2022-12-07T05:08:45;5.40;99.90
56044;DHT22;41912;51.022;3.664;2022-12-07T05:11:11;5.40;99.90
56044;DHT22;41912;51.022;3.664;2022-12-07T05:13:56;5.50;99.90
56044;DHT22;41912;51.022;3.664;2022-12-07T05:16:22;5.50;99.90
56044;DHT22;41912;51.022;3.664;2022-12-07T05:18:48;5.50;99.90
56044;DHT22;41912;51.022;3.664;2022-12-07T05:21:13;5.60;99.90
56044;DHT22;41912;51.022;3.664;2022-12-07T05:23:39;5.60;99.90
56044;DHT22;41912;51.022;3.664;2022-12-07T05:26:05;5.60;99.90
56044;DHT22;41912;51.022;3.664;2022-12-07T05:28:30;5.60;99.90
56044;DHT22;41912;51.022;3.664;2022-12-07T05:30:56;5.60;99.90
56044;DHT22;41912;51.022;3.664;2022-12-07T05:33:21;5.50;99.90
56044;DHT22;41912;51.022;3.664;2022-12-07T05:35:47;5.60;99.90
56044;DHT22;41912;51.022;3.664;2022-12-07T05:38:13;5.60;99.90
56044;DHT22;41912;51.022;3.664;2022-12-07T05:40:38;5.50;99.90
56044;DHT22;41912;51.022;3.664;2022-12-07T05:43:04;5.60;99.90
56044;DHT22;41912;51.022;3.664;2022-12-07T05:45:30;5.50;99.90
56044;DHT22;41912;51.022;3.664;2022-12-07T05:47:55;5.50;99.90
56044;DHT22;41912;51.022;3.664;2022-12-07T05:50:21;5.40;99.90
56044;DHT22;41912;51.022;3.664;2022-12-07T05:52:46;5.40;99.90
56044;DHT22;41912;51.022;3.664;2022-12-07T05:55:12;5.30;99.90
56044;DHT22;41912;51.022;3.664;2022-12-07T05:57:38;5.30;99.90
56044;DHT22;41912;51.022;3.664;2022-12-07T06:00:05;5.40;99.90
56044;DHT22;41912;51.022;3.664;2022-12-07T06:02:30;5.30;99.90
56044;DHT22;41912;51.022;3.664;2022-12-07T06:04:56;5.30;99.90
56044;DHT22;41912;51.022;3.664;2022-12-07T06:07:22;5.30;99.90
56044;DHT22;41912;51.022;3.664;2022-12-07T06:09:47;5.20;99.90
56044;DHT22;41912;51.022;3.664;2022-12-07T06:12:13;5.20;99.90
56044;DHT22;41912;51.022;3.664;2022-12-07T06:14:57;5.10;99.90
56044;DHT22;41912;51.022;3.664;2022-12-07T06:17:23;5.10;99.90
56044;DHT22;41912;51.022;3.664;2022-12-07T06:19:49;5.10;99.90
56044;DHT22;41912;51.022;3.664;2022-12-07T06:22:15;5.10;99.90
56044;DHT22;41912;51.022;3.664;2022-12-07T06:24:44;5.10;99.90
56044;DHT22;41912;51.022;3.664;2022-12-07T06:27:10;5.10;99.90
56044;DHT22;41912;51.022;3.664;2022-12-07T06:29:36;5.10;99.90
56044;DHT22;41912;51.022;3.664;2022-12-07T06:32:03;5.10;99.90
56044;DHT22;41912;51.022;3.664;2022-12-07T06:34:28;5.10;99.90
56044;DHT22;41912;51.022;3.664;2022-12-07T06:36:54;5.10;99.90
56044;DHT22;41912;51.022;3.664;2022-12-07T06:39:28;5.10;99.90
56044;DHT22;41912;51.022;3.664;2022-12-07T06:41:53;5.00;99.90
56044;DHT22;41912;51.022;3.664;2022-12-07T06:44:20;5.00;99.90
56044;DHT22;41912;51.022;3.664;2022-12-07T06:46:47;5.00;99.90
56044;DHT22;41912;51.022;3.664;2022-12-07T06:49:12;5.00;99.90
56044;DHT22;41912;51.022;3.664;2022-12-07T06:51:38;5.00;99.90
56044;DHT22;41912;51.022;3.664;2022-12-07T06:54:11;5.00;99.90
56044;DHT22;41912;51.022;3.664;2022-12-07T06:56:37;5.00;99.90
56044;DHT22;41912;51.022;3.664;2022-12-07T06:59:04;5.00;99.90
56044;DHT22;41912;51.022;3.664;2022-12-07T07:01:32;5.00;99.90
56044;DHT22;41912;51.022;3.664;2022-12-07T07:03:58;5.10;99.90
56044;DHT22;41912;51.022;3.664;2022-12-07T07:06:23;5.10;99.90
56044;DHT22;41912;51.022;3.664;2022-12-07T07:08:49;5.20;99.90
56044;DHT22;41912;51.022;3.664;2022-12-07T07:11:15;5.10;99.90
56044;DHT22;41912;51.022;3.664;2022-12-07T07:13:41;5.20;99.90
56044;DHT22;41912;51.022;3.664;2022-12-07T07:16:07;5.20;99.90
56044;DHT22;41912;51.022;3.664;2022-12-07T07:18:33;5.20;99.90
56044;DHT22;41912;51.022;3.664;2022-12-07T07:20:59;5.20;99.90
56044;DHT22;41912;51.022;3.664;2022-12-07T07:23:25;5.20;99.90
56044;DHT22;41912;51.022;3.664;2022-12-07T07:25:50;5.20;99.90
56044;DHT22;41912;51.022;3.664;2022-12-07T07:28:16;5.20;99.90
56044;DHT22;41912;51.022;3.664;2022-12-07T07:30:42;5.30;99.90
56044;DHT22;41912;51.022;3.664;2022-12-07T07:33:09;5.30;99.90
56044;DHT22;41912;51.022;3.664;2022-12-07T07:35:35;5.30;99.90
56044;DHT22;41912;51.022;3.664;2022-12-07T07:38:01;5.30;99.90
56044;DHT22;41912;51.022;3.664;2022-12-07T07:40:28;5.30;99.90
56044;DHT22;41912;51.022;3.664;2022-12-07T07:42:57;5.30;99.90
56044;DHT22;41912;51.022;3.664;2022-12-07T07:45:24;5.30;99.90
56044;DHT22;41912;51.022;3.664;2022-12-07T07:47:50;5.20;99.90
56044;DHT22;41912;51.022;3.664;2022-12-07T07:50:16;5.20;99.90
56044;DHT22;41912;51.022;3.664;2022-12-07T07:52:43;5.30;99.90
56044;DHT22;41912;51.022;3.664;2022-12-07T07:55:09;5.30;99.90
56044;DHT22;41912;51.022;3.664;2022-12-07T07:57:36;5.30;99.90
56044;DHT22;41912;51.022;3.664;2022-12-07T08:00:08;5.30;99.90
56044;DHT22;41912;51.022;3.664;2022-12-07T08:02:34;5.30;99.90
56044;DHT22;41912;51.022;3.664;2022-12-07T08:05:00;5.30;99.90
56044;DHT22;41912;51.022;3.664;2022-12-07T08:07:27;5.30;99.90
56044;DHT22;41912;51.022;3.664;2022-12-07T08:09:53;5.30;99.90
56044;DHT22;41912;51.022;3.664;2022-12-07T08:12:18;5.40;99.90
56044;DHT22;41912;51.022;3.664;2022-12-07T08:14:44;5.30;99.90
56044;DHT22;41912;51.022;3.664;2022-12-07T08:17:09;5.30;99.90
56044;DHT22;41912;51.022;3.664;2022-12-07T08:19:35;5.40;99.90
56044;DHT22;41912;51.022;3.664;2022-12-07T08:22:01;5.30;99.90
56044;DHT22;41912;51.022;3.664;2022-12-07T08:24:27;5.30;99.90
56044;DHT22;41912;51.022;3.664;2022-12-07T08:26:52;5.40;99.90
56044;DHT22;41912;51.022;3.664;2022-12-07T08:29:18;5.40;99.90
56044;DHT22;41912;51.022;3.664;2022-12-07T08:31:44;5.40;99.90
56044;DHT22;41912;51.022;3.664;2022-12-07T08:34:10;5.40;99.90
56044;DHT22;41912;51.022;3.664;2022-12-07T08:36:37;5.50;99.90
56044;DHT22;41912;51.022;3.664;2022-12-07T08:39:03;5.50;99.90
56044;DHT22;41912;51.022;3.664;2022-12-07T08:41:29;5.50;99.90
56044;DHT22;41912;51.022;3.664;2022-12-07T08:43:54;5.50;99.90
56044;DHT22;41912;51.022;3.664;2022-12-07T08:49:12;5.60;99.90
56044;DHT22;41912;51.022;3.664;2022-12-07T08:51:39;5.60;99.90
56044;DHT22;41912;51.022;3.664;2022-12-07T08:54:09;5.70;99.90
56044;DHT22;41912;51.022;3.664;2022-12-07T08:56:35;5.70;99.90
56044;DHT22;41912;51.022;3.664;2022-12-07T08:59:02;5.80;99.90
56044;DHT22;41912;51.022;3.664;2022-12-07T09:01:28;5.80;99.90
56044;DHT22;41912;51.022;3.664;2022-12-07T09:03:54;5.90;99.90
56044;DHT22;41912;51.022;3.664;2022-12-07T09:06:20;5.90;99.90
56044;DHT22;41912;51.022;3.664;2022-12-07T09:08:47;5.90;99.90
56044;DHT22;41912;51.022;3.664;2022-12-07T09:11:14;5.90;99.90
56044;DHT22;41912;51.022;3.664;2022-12-07T09:13:39;6.00;99.90
56044;DHT22;41912;51.022;3.664;2022-12-07T09:16:05;6.00;99.90
56044;DHT22;41912;51.022;3.664;2022-12-07T09:18:31;6.00;99.90
56044;DHT22;41912;51.022;3.664;2022-12-07T09:20:57;6.10;99.90
56044;DHT22;41912;51.022;3.664;2022-12-07T09:23:23;6.10;99.90
56044;DHT22;41912;51.022;3.664;2022-12-07T09:25:49;6.10;99.90
56044;DHT22;41912;51.022;3.664;2022-12-07T09:28:14;6.10;99.90
56044;DHT22;41912;51.022;3.664;2022-12-07T09:30:46;6.20;99.90
56044;DHT22;41912;51.022;3.664;2022-12-07T09:33:12;6.20;99.90
56044;DHT22;41912;51.022;3.664;2022-12-07T09:35:38;6.20;99.90
56044;DHT22;41912;51.022;3.664;2022-12-07T09:38:03;6.20;99.90
56044;DHT22;41912;51.022;3.664;2022-12-07T09:40:29;6.30;99.90
56044;DHT22;41912;51.022;3.664;2022-12-07T09:42:55;6.30;99.90
56044;DHT22;41912;51.022;3.664;2022-12-07T09:45:27;6.30;99.90
56044;DHT22;41912;51.022;3.664;2022-12-07T09:47:54;6.30;99.90
56044;DHT22;41912;51.022;3.664;2022-12-07T09:50:23;6.30;99.90
56044;DHT22;41912;51.022;3.664;2022-12-07T09:52:50;6.40;99.90
56044;DHT22;41912;51.022;3.664;2022-12-07T09:55:25;6.40;99.90
56044;DHT22;41912;51.022;3.664;2022-12-07T09:57:52;6.40;99.90
56044;DHT22;41912;51.022;3.664;2022-12-07T10:00:21;6.40;99.90
56044;DHT22;41912;51.022;3.664;2022-12-07T10:05:19;6.40;99.90
56044;DHT22;41912;51.022;3.664;2022-12-07T10:07:46;6.40;99.90
56044;DHT22;41912;51.022;3.664;2022-12-07T10:10:34;6.40;99.90
56044;DHT22;41912;51.022;3.664;2022-12-07T10:13:05;6.50;99.90
56044;DHT22;41912;51.022;3.664;2022-12-07T10:15:55;6.50;99.90
56044;DHT22;41912;51.022;3.664;2022-12-07T10:23:28;6.50;99.90
56044;DHT22;41912;51.022;3.664;2022-12-07T10:25:54;6.50;99.90
56044;DHT22;41912;51.022;3.664;2022-12-07T10:28:21;6.50;99.90
56044;DHT22;41912;51.022;3.664;2022-12-07T10:30:57;6.50;99.90
56044;DHT22;41912;51.022;3.664;2022-12-07T10:33:36;6.60;99.90
56044;DHT22;41912;51.022;3.664;2022-12-07T10:39:11;6.70;99.90
56044;DHT22;41912;51.022;3.664;2022-12-07T10:41:35;6.70;99.90
56044;DHT22;41912;51.022;3.664;2022-12-07T10:44:00;6.80;99.90
56044;DHT22;41912;51.022;3.664;2022-12-07T10:49:13;6.90;99.90
56044;DHT22;41912;51.022;3.664;2022-12-07T10:52:09;6.90;99.90
56044;DHT22;41912;51.022;3.664;2022-12-07T11:10:55;7.10;99.90
56044;DHT22;41912;51.022;3.664;2022-12-07T11:16:16;7.10;99.90
56044;DHT22;41912;51.022;3.664;2022-12-07T11:24:43;7.10;99.90
56044;DHT22;41912;51.022;3.664;2022-12-07T11:27:32;7.20;99.90
56044;DHT22;41912;51.022;3.664;2022-12-07T11:30:10;7.20;99.90
56044;DHT22;41912;51.022;3.664;2022-12-07T11:38:02;7.20;99.90
56044;DHT22;41912;51.022;3.664;2022-12-07T11:40:33;7.20;99.90
56044;DHT22;41912;51.022;3.664;2022-12-07T11:43:27;7.20;99.90
56044;DHT22;41912;51.022;3.664;2022-12-07T11:46:10;7.30;99.90
56044;DHT22;41912;51.022;3.664;2022-12-07T11:51:40;7.30;99.90
56044;DHT22;41912;51.022;3.664;2022-12-07T11:54:31;7.40;99.90
56044;DHT22;41912;51.022;3.664;2022-12-07T11:57:04;7.40;99.90
56044;DHT22;41912;51.022;3.664;2022-12-07T11:59:40;7.50;99.90
56044;DHT22;41912;51.022;3.664;2022-12-07T12:02:16;7.60;99.90
56044;DHT22;41912;51.022;3.664;2022-12-07T12:04:49;7.60;99.90
56044;DHT22;41912;51.022;3.664;2022-12-07T12:07:21;7.60;99.90
56044;DHT22;41912;51.022;3.664;2022-12-07T12:09:54;7.70;99.90
56044;DHT22;41912;51.022;3.664;2022-12-07T12:12:29;7.70;99.90
56044;DHT22;41912;51.022;3.664;2022-12-07T12:15:20;7.70;99.90
56044;DHT22;41912;51.022;3.664;2022-12-07T12:17:57;7.70;99.90
56044;DHT22;41912;51.022;3.664;2022-12-07T12:23:15;7.70;99.90
56044;DHT22;41912;51.022;3.664;2022-12-07T12:25:56;7.70;99.90
56044;DHT22;41912;51.022;3.664;2022-12-07T12:28:44;7.70;99.90
56044;DHT22;41912;51.022;3.664;2022-12-07T12:33:51;7.60;99.90
56044;DHT22;41912;51.022;3.664;2022-12-07T12:44:01;7.70;99.90
56044;DHT22;41912;51.022;3.664;2022-12-07T12:51:48;7.60;99.90
56044;DHT22;41912;51.022;3.664;2022-12-07T12:59:41;7.70;99.90
56044;DHT22;41912;51.022;3.664;2022-12-07T13:02:27;7.70;99.90
56044;DHT22;41912;51.022;3.664;2022-12-07T13:15:51;7.90;99.90
56044;DHT22;41912;51.022;3.664;2022-12-07T13:34:03;8.00;99.90
56044;DHT22;41912;51.022;3.664;2022-12-07T13:39:11;8.10;99.90
56044;DHT22;41912;51.022;3.664;2022-12-07T13:41:42;8.10;99.90
56044;DHT22;41912;51.022;3.664;2022-12-07T13:44:13;8.20;99.90
56044;DHT22;41912;51.022;3.664;2022-12-07T13:49:20;8.20;99.90
56044;DHT22;41912;51.022;3.664;2022-12-07T13:51:47;8.20;99.90
56044;DHT22;41912;51.022;3.664;2022-12-07T13:54:13;8.20;99.90
56044;DHT22;41912;51.022;3.664;2022-12-07T13:56:40;8.30;99.90
56044;DHT22;41912;51.022;3.664;2022-12-07T13:59:21;8.30;99.90
56044;DHT22;41912;51.022;3.664;2022-12-07T14:01:48;8.30;99.90
56044;DHT22;41912;51.022;3.664;2022-12-07T14:04:31;8.40;99.90
56044;DHT22;41912;51.022;3.664;2022-12-07T14:06:57;8.40;99.90
56044;DHT22;41912;51.022;3.664;2022-12-07T14:09:25;8.40;99.90
56044;DHT22;41912;51.022;3.664;2022-12-07T14:11:54;8.40;99.90
56044;DHT22;41912;51.022;3.664;2022-12-07T14:14:29;8.40;99.90
56044;DHT22;41912;51.022;3.664;2022-12-07T14:17:17;8.40;99.90
56044;DHT22;41912;51.022;3.664;2022-12-07T14:19:58;8.40;99.90
56044;DHT22;41912;51.022;3.664;2022-12-07T14:22:31;8.40;99.90
56044;DHT22;41912;51.022;3.664;2022-12-07T14:28:02;8.30;99.90
56044;DHT22;41912;51.022;3.664;2022-12-07T14:30:30;8.30;99.90
56044;DHT22;41912;51.022;3.664;2022-12-07T14:33:04;8.30;99.90
56044;DHT22;41912;51.022;3.664;2022-12-07T14:35:31;8.30;99.90
56044;DHT22;41912;51.022;3.664;2022-12-07T14:37:57;8.30;99.90
56044;DHT22;41912;51.022;3.664;2022-12-07T14:40:28;8.30;99.90
56044;DHT22;41912;51.022;3.664;2022-12-07T14:43:05;8.30;99.90
56044;DHT22;41912;51.022;3.664;2022-12-07T14:45:32;8.30;99.90
56044;DHT22;41912;51.022;3.664;2022-12-07T14:47:57;8.30;99.90
56044;DHT22;41912;51.022;3.664;2022-12-07T14:50:23;8.30;99.90
56044;DHT22;41912;51.022;3.664;2022-12-07T14:52:58;8.30;99.90
56044;DHT22;41912;51.022;3.664;2022-12-07T14:55:27;8.30;99.90
56044;DHT22;41912;51.022;3.664;2022-12-07T14:57:53;8.20;99.90
56044;DHT22;41912;51.022;3.664;2022-12-07T15:00:21;8.20;99.90
56044;DHT22;41912;51.022;3.664;2022-12-07T15:02:48;8.20;99.90
56044;DHT22;41912;51.022;3.664;2022-12-07T15:05:14;8.20;99.90
56044;DHT22;41912;51.022;3.664;2022-12-07T15:07:40;8.20;99.90
56044;DHT22;41912;51.022;3.664;2022-12-07T15:10:14;8.20;99.90
56044;DHT22;41912;51.022;3.664;2022-12-07T15:12:41;8.20;99.90
56044;DHT22;41912;51.022;3.664;2022-12-07T15:15:07;8.10;99.90
56044;DHT22;41912;51.022;3.664;2022-12-07T15:17:33;8.10;99.90
56044;DHT22;41912;51.022;3.664;2022-12-07T15:19:59;8.10;99.90
56044;DHT22;41912;51.022;3.664;2022-12-07T15:22:24;8.10;99.90
56044;DHT22;41912;51.022;3.664;2022-12-07T15:24:50;8.10;99.90
56044;DHT22;41912;51.022;3.664;2022-12-07T15:27:15;8.10;99.90
56044;DHT22;41912;51.022;3.664;2022-12-07T15:29:41;8.00;99.90
56044;DHT22;41912;51.022;3.664;2022-12-07T15:32:07;8.00;99.90
56044;DHT22;41912;51.022;3.664;2022-12-07T15:34:32;8.00;99.90
56044;DHT22;41912;51.022;3.664;2022-12-07T15:36:58;7.90;99.90
56044;DHT22;41912;51.022;3.664;2022-12-07T15:39:23;7.80;99.90
56044;DHT22;41912;51.022;3.664;2022-12-07T15:41:49;7.80;99.90
56044;DHT22;41912;51.022;3.664;2022-12-07T15:44:15;7.80;99.90
56044;DHT22;41912;51.022;3.664;2022-12-07T15:47:00;7.80;99.90
56044;DHT22;41912;51.022;3.664;2022-12-07T15:49:26;7.60;99.90
56044;DHT22;41912;51.022;3.664;2022-12-07T15:51:51;7.60;99.90
56044;DHT22;41912;51.022;3.664;2022-12-07T15:54:28;7.50;99.90
56044;DHT22;41912;51.022;3.664;2022-12-07T15:56:54;7.50;99.90
56044;DHT22;41912;51.022;3.664;2022-12-07T15:59:20;7.40;99.90
56044;DHT22;41912;51.022;3.664;2022-12-07T16:01:46;7.40;99.90
56044;DHT22;41912;51.022;3.664;2022-12-07T16:04:12;7.40;99.90
56044;DHT22;41912;51.022;3.664;2022-12-07T16:06:37;7.30;99.90
56044;DHT22;41912;51.022;3.664;2022-12-07T16:09:03;7.30;99.90
56044;DHT22;41912;51.022;3.664;2022-12-07T16:11:30;7.30;99.90
56044;DHT22;41912;51.022;3.664;2022-12-07T16:13:55;7.30;99.90
56044;DHT22;41912;51.022;3.664;2022-12-07T16:16:21;7.20;99.90
56044;DHT22;41912;51.022;3.664;2022-12-07T16:18:49;7.20;99.90
56044;DHT22;41912;51.022;3.664;2022-12-07T16:21:16;7.10;99.90
56044;DHT22;41912;51.022;3.664;2022-12-07T16:23:42;7.10;99.90
56044;DHT22;41912;51.022;3.664;2022-12-07T16:26:16;7.10;99.90
56044;DHT22;41912;51.022;3.664;2022-12-07T16:28:42;7.00;99.90
56044;DHT22;41912;51.022;3.664;2022-12-07T16:31:11;7.00;99.90
56044;DHT22;41912;51.022;3.664;2022-12-07T16:33:38;7.00;99.90
56044;DHT22;41912;51.022;3.664;2022-12-07T16:36:05;7.00;99.90
56044;DHT22;41912;51.022;3.664;2022-12-07T16:38:31;7.00;99.90
56044;DHT22;41912;51.022;3.664;2022-12-07T16:40:57;6.90;99.90
56044;DHT22;41912;51.022;3.664;2022-12-07T16:43:22;6.90;99.90
56044;DHT22;41912;51.022;3.664;2022-12-07T16:45:48;6.90;99.90
56044;DHT22;41912;51.022;3.664;2022-12-07T16:48:15;6.90;99.90
56044;DHT22;41912;51.022;3.664;2022-12-07T16:50:42;6.80;99.90
56044;DHT22;41912;51.022;3.664;2022-12-07T16:53:12;6.80;99.90
56044;DHT22;41912;51.022;3.664;2022-12-07T16:55:45;6.80;99.90
56044;DHT22;41912;51.022;3.664;2022-12-07T16:58:12;6.80;99.90
56044;DHT22;41912;51.022;3.664;2022-12-07T17:00:39;6.90;99.90
56044;DHT22;41912;51.022;3.664;2022-12-07T17:03:05;6.90;99.90
56044;DHT22;41912;51.022;3.664;2022-12-07T17:05:31;6.90;99.90
56044;DHT22;41912;51.022;3.664;2022-12-07T17:07:57;6.90;99.90
56044;DHT22;41912;51.022;3.664;2022-12-07T17:10:24;6.90;99.90
56044;DHT22;41912;51.022;3.664;2022-12-07T17:12:50;6.90;99.90
56044;DHT22;41912;51.022;3.664;2022-12-07T17:15:16;6.80;99.90
56044;DHT22;41912;51.022;3.664;2022-12-07T17:17:50;6.90;99.90
56044;DHT22;41912;51.022;3.664;2022-12-07T17:20:21;6.90;99.90
56044;DHT22;41912;51.022;3.664;2022-12-07T17:22:47;6.80;99.90
56044;DHT22;41912;51.022;3.664;2022-12-07T17:25:16;6.90;99.90
56044;DHT22;41912;51.022;3.664;2022-12-07T17:27:46;6.90;99.90
56044;DHT22;41912;51.022;3.664;2022-12-07T17:30:13;6.80;99.90
56044;DHT22;41912;51.022;3.664;2022-12-07T17:32:39;6.80;99.90
56044;DHT22;41912;51.022;3.664;2022-12-07T17:35:05;6.80;99.90
56044;DHT22;41912;51.022;3.664;2022-12-07T17:37:31;6.80;99.90
56044;DHT22;41912;51.022;3.664;2022-12-07T17:39:57;6.70;99.90
56044;DHT22;41912;51.022;3.664;2022-12-07T17:42:24;6.70;99.90
56044;DHT22;41912;51.022;3.664;2022-12-07T17:45:07;6.60;99.90
56044;DHT22;41912;51.022;3.664;2022-12-07T17:47:35;6.60;99.90
56044;DHT22;41912;51.022;3.664;2022-12-07T17:50:01;6.60;99.90
56044;DHT22;41912;51.022;3.664;2022-12-07T17:52:26;6.50;99.90
56044;DHT22;41912;51.022;3.664;2022-12-07T17:55:10;6.60;99.90
56044;DHT22;41912;51.022;3.664;2022-12-07T17:57:36;6.50;99.90
56044;DHT22;41912;51.022;3.664;2022-12-07T18:00:04;6.40;99.90
56044;DHT22;41912;51.022;3.664;2022-12-07T18:02:30;6.40;99.90
56044;DHT22;41912;51.022;3.664;2022-12-07T18:04:56;6.40;99.90
56044;DHT22;41912;51.022;3.664;2022-12-07T18:07:22;6.30;99.90
56044;DHT22;41912;51.022;3.664;2022-12-07T18:09:47;6.30;99.90